sensor_id;sensor_type;location;lat;lon;timestamp;P1;durP1;ratioP1;P2;durP2;ratioP2
24891;SDS011;12954;50.688;10.908;2022-10-31T00:01:28;7.88;;;2.47;;
24891;SDS011;12954;50.688;10.908;2022-10-31T00:03:58;9.18;;;2.90;;
24891;SDS011;12954;50.688;10.908;2022-10-31T00:06:26;10.25;;;2.60;;
24891;SDS011;12954;50.688;10.908;2022-10-31T00:08:55;9.00;;;2.42;;
24891;SDS011;12954;50.688;10.908;2022-10-31T00:11:26;7.75;;;2.42;;
24891;SDS011;12954;50.688;10.908;2022-10-31T00:13:54;11.85;;;2.88;;
24891;SDS011;12954;50.688;10.908;2022-10-31T00:16:26;9.85;;;2.33;;
24891;SDS011;12954;50.688;10.908;2022-10-31T00:18:56;5.93;;;2.03;;
24891;SDS011;12954;50.688;10.908;2022-10-31T00:21:26;6.28;;;2.58;;
24891;SDS011;12954;50.688;10.908;2022-10-31T00:23:56;9.55;;;2.35;;
24891;SDS011;12954;50.688;10.908;2022-10-31T00:26:26;4.60;;;2.38;;
24891;SDS011;12954;50.688;10.908;2022-10-31T00:28:55;12.20;;;2.60;;
24891;SDS011;12954;50.688;10.908;2022-10-31T00:31:24;7.25;;;2.65;;
24891;SDS011;12954;50.688;10.908;2022-10-31T00:33:53;10.45;;;2.78;;
24891;SDS011;12954;50.688;10.908;2022-10-31T00:36:21;10.50;;;2.25;;
24891;SDS011;12954;50.688;10.908;2022-10-31T00:38:50;6.65;;;2.20;;
24891;SDS011;12954;50.688;10.908;2022-10-31T00:41:18;5.97;;;2.53;;
24891;SDS011;12954;50.688;10.908;2022-10-31T00:43:46;7.10;;;2.50;;
24891;SDS011;12954;50.688;10.908;2022-10-31T00:46:15;8.48;;;2.70;;
24891;SDS011;12954;50.688;10.908;2022-10-31T00:48:45;11.50;;;2.70;;
24891;SDS011;12954;50.688;10.908;2022-10-31T00:51:13;6.75;;;2.60;;
24891;SDS011;12954;50.688;10.908;2022-10-31T00:53:41;5.70;;;2.63;;
24891;SDS011;12954;50.688;10.908;2022-10-31T00:56:10;6.07;;;2.88;;
24891;SDS011;12954;50.688;10.908;2022-10-31T00:58:38;8.25;;;2.70;;
24891;SDS011;12954;50.688;10.908;2022-10-31T01:01:07;7.55;;;2.47;;
24891;SDS011;12954;50.688;10.908;2022-10-31T01:03:35;9.43;;;2.60;;
24891;SDS011;12954;50.688;10.908;2022-10-31T01:06:08;8.80;;;2.33;;
24891;SDS011;12954;50.688;10.908;2022-10-31T01:08:38;12.93;;;2.90;;
24891;SDS011;12954;50.688;10.908;2022-10-31T01:11:07;8.93;;;2.70;;
24891;SDS011;12954;50.688;10.908;2022-10-31T01:13:38;8.98;;;2.90;;
24891;SDS011;12954;50.688;10.908;2022-10-31T01:16:08;7.03;;;2.50;;
24891;SDS011;12954;50.688;10.908;2022-10-31T01:18:38;7.03;;;2.80;;
24891;SDS011;12954;50.688;10.908;2022-10-31T01:21:09;7.10;;;2.38;;
24891;SDS011;12954;50.688;10.908;2022-10-31T01:23:39;5.55;;;2.28;;
24891;SDS011;12954;50.688;10.908;2022-10-31T01:26:08;5.53;;;2.78;;
24891;SDS011;12954;50.688;10.908;2022-10-31T01:28:39;8.70;;;2.50;;
24891;SDS011;12954;50.688;10.908;2022-10-31T01:31:12;9.32;;;2.75;;
24891;SDS011;12954;50.688;10.908;2022-10-31T01:33:41;8.48;;;2.53;;
24891;SDS011;12954;50.688;10.908;2022-10-31T01:36:15;10.52;;;2.80;;
24891;SDS011;12954;50.688;10.908;2022-10-31T01:38:46;10.55;;;3.50;;
24891;SDS011;12954;50.688;10.908;2022-10-31T01:41:16;7.97;;;2.58;;
24891;SDS011;12954;50.688;10.908;2022-10-31T01:43:50;6.90;;;2.90;;
24891;SDS011;12954;50.688;10.908;2022-10-31T01:46:22;7.55;;;3.03;;
24891;SDS011;12954;50.688;10.908;2022-10-31T01:48:54;10.63;;;3.70;;
24891;SDS011;12954;50.688;10.908;2022-10-31T01:51:27;9.15;;;3.70;;
24891;SDS011;12954;50.688;10.908;2022-10-31T01:54:00;9.23;;;3.50;;
24891;SDS011;12954;50.688;10.908;2022-10-31T01:56:32;10.50;;;3.05;;
24891;SDS011;12954;50.688;10.908;2022-10-31T01:59:04;7.85;;;2.80;;
24891;SDS011;12954;50.688;10.908;2022-10-31T02:01:36;8.43;;;2.85;;
24891;SDS011;12954;50.688;10.908;2022-10-31T02:04:05;8.13;;;2.95;;
24891;SDS011;12954;50.688;10.908;2022-10-31T02:06:37;5.72;;;2.60;;
24891;SDS011;12954;50.688;10.908;2022-10-31T02:09:10;8.23;;;2.75;;
24891;SDS011;12954;50.688;10.908;2022-10-31T02:11:40;6.00;;;2.50;;
24891;SDS011;12954;50.688;10.908;2022-10-31T02:14:10;9.18;;;2.63;;
24891;SDS011;12954;50.688;10.908;2022-10-31T02:16:39;8.15;;;2.17;;
24891;SDS011;12954;50.688;10.908;2022-10-31T02:19:07;5.65;;;2.60;;
24891;SDS011;12954;50.688;10.908;2022-10-31T02:21:43;7.32;;;2.60;;
24891;SDS011;12954;50.688;10.908;2022-10-31T02:24:25;6.07;;;2.30;;
24891;SDS011;12954;50.688;10.908;2022-10-31T02:27:16;7.55;;;2.55;;
24891;SDS011;12954;50.688;10.908;2022-10-31T02:30:04;7.95;;;2.72;;
24891;SDS011;12954;50.688;10.908;2022-10-31T02:32:52;9.85;;;3.38;;
24891;SDS011;12954;50.688;10.908;2022-10-31T02:35:34;6.55;;;3.00;;
24891;SDS011;12954;50.688;10.908;2022-10-31T02:38:18;8.85;;;3.00;;
24891;SDS011;12954;50.688;10.908;2022-10-31T02:40:57;9.15;;;2.78;;
24891;SDS011;12954;50.688;10.908;2022-10-31T02:43:33;9.70;;;2.45;;
24891;SDS011;12954;50.688;10.908;2022-10-31T02:46:08;8.15;;;2.88;;
24891;SDS011;12954;50.688;10.908;2022-10-31T02:48:44;6.22;;;2.25;;
24891;SDS011;12954;50.688;10.908;2022-10-31T02:51:14;8.27;;;3.00;;
24891;SDS011;12954;50.688;10.908;2022-10-31T02:53:44;6.93;;;2.80;;
24891;SDS011;12954;50.688;10.908;2022-10-31T02:56:13;9.27;;;2.83;;
24891;SDS011;12954;50.688;10.908;2022-10-31T02:58:45;6.32;;;3.00;;
24891;SDS011;12954;50.688;10.908;2022-10-31T03:01:20;8.47;;;2.90;;
24891;SDS011;12954;50.688;10.908;2022-10-31T03:04:02;8.00;;;3.08;;
24891;SDS011;12954;50.688;10.908;2022-10-31T03:06:45;6.80;;;2.78;;
24891;SDS011;12954;50.688;10.908;2022-10-31T03:09:22;7.38;;;2.60;;
24891;SDS011;12954;50.688;10.908;2022-10-31T03:11:57;9.05;;;2.90;;
24891;SDS011;12954;50.688;10.908;2022-10-31T03:14:30;9.80;;;2.53;;
24891;SDS011;12954;50.688;10.908;2022-10-31T03:17:07;7.25;;;2.55;;
24891;SDS011;12954;50.688;10.908;2022-10-31T03:19:45;7.78;;;2.63;;
24891;SDS011;12954;50.688;10.908;2022-10-31T03:22:17;9.82;;;3.38;;
24891;SDS011;12954;50.688;10.908;2022-10-31T03:24:49;7.40;;;3.08;;
24891;SDS011;12954;50.688;10.908;2022-10-31T03:27:21;9.50;;;3.13;;
24891;SDS011;12954;50.688;10.908;2022-10-31T03:29:52;10.20;;;3.03;;
24891;SDS011;12954;50.688;10.908;2022-10-31T03:32:24;7.00;;;2.53;;
24891;SDS011;12954;50.688;10.908;2022-10-31T03:34:59;10.50;;;2.90;;
24891;SDS011;12954;50.688;10.908;2022-10-31T03:37:32;7.15;;;2.90;;
24891;SDS011;12954;50.688;10.908;2022-10-31T03:40:02;5.93;;;2.70;;
24891;SDS011;12954;50.688;10.908;2022-10-31T03:42:34;7.57;;;2.92;;
24891;SDS011;12954;50.688;10.908;2022-10-31T03:45:07;10.50;;;3.20;;
24891;SDS011;12954;50.688;10.908;2022-10-31T03:47:40;6.70;;;2.88;;
24891;SDS011;12954;50.688;10.908;2022-10-31T03:50:13;5.70;;;2.40;;
24891;SDS011;12954;50.688;10.908;2022-10-31T03:52:43;7.07;;;3.03;;
24891;SDS011;12954;50.688;10.908;2022-10-31T03:55:17;6.93;;;3.00;;
24891;SDS011;12954;50.688;10.908;2022-10-31T03:57:48;6.35;;;2.80;;
24891;SDS011;12954;50.688;10.908;2022-10-31T04:00:23;8.38;;;3.30;;
24891;SDS011;12954;50.688;10.908;2022-10-31T04:02:53;5.97;;;2.35;;
24891;SDS011;12954;50.688;10.908;2022-10-31T04:05:29;8.75;;;2.60;;
24891;SDS011;12954;50.688;10.908;2022-10-31T04:07:59;6.00;;;2.60;;
24891;SDS011;12954;50.688;10.908;2022-10-31T04:10:31;5.88;;;2.80;;
24891;SDS011;12954;50.688;10.908;2022-10-31T04:13:03;7.80;;;2.70;;
24891;SDS011;12954;50.688;10.908;2022-10-31T04:15:35;6.88;;;3.17;;
24891;SDS011;12954;50.688;10.908;2022-10-31T04:18:05;5.90;;;2.20;;
24891;SDS011;12954;50.688;10.908;2022-10-31T04:20:35;6.68;;;2.78;;
24891;SDS011;12954;50.688;10.908;2022-10-31T04:23:05;8.23;;;2.78;;
24891;SDS011;12954;50.688;10.908;2022-10-31T04:25:40;10.10;;;3.15;;
24891;SDS011;12954;50.688;10.908;2022-10-31T04:28:08;7.95;;;3.22;;
24891;SDS011;12954;50.688;10.908;2022-10-31T04:30:36;10.18;;;3.22;;
24891;SDS011;12954;50.688;10.908;2022-10-31T04:33:05;7.90;;;3.00;;
24891;SDS011;12954;50.688;10.908;2022-10-31T04:35:35;6.05;;;2.95;;
24891;SDS011;12954;50.688;10.908;2022-10-31T04:38:03;5.63;;;2.90;;
24891;SDS011;12954;50.688;10.908;2022-10-31T04:40:32;6.82;;;2.45;;
24891;SDS011;12954;50.688;10.908;2022-10-31T04:43:00;10.73;;;3.15;;
24891;SDS011;12954;50.688;10.908;2022-10-31T04:45:29;6.75;;;3.13;;
24891;SDS011;12954;50.688;10.908;2022-10-31T04:47:57;8.82;;;2.60;;
24891;SDS011;12954;50.688;10.908;2022-10-31T04:50:26;10.23;;;3.20;;
24891;SDS011;12954;50.688;10.908;2022-10-31T04:52:56;6.53;;;2.85;;
24891;SDS011;12954;50.688;10.908;2022-10-31T04:55:24;9.43;;;3.15;;
24891;SDS011;12954;50.688;10.908;2022-10-31T04:57:53;7.28;;;3.30;;
24891;SDS011;12954;50.688;10.908;2022-10-31T05:00:22;6.65;;;3.33;;
24891;SDS011;12954;50.688;10.908;2022-10-31T05:02:51;8.00;;;2.75;;
24891;SDS011;12954;50.688;10.908;2022-10-31T05:05:22;8.02;;;3.13;;
24891;SDS011;12954;50.688;10.908;2022-10-31T05:07:52;8.90;;;3.30;;
24891;SDS011;12954;50.688;10.908;2022-10-31T05:10:23;8.48;;;3.30;;
24891;SDS011;12954;50.688;10.908;2022-10-31T05:12:54;8.23;;;3.65;;
24891;SDS011;12954;50.688;10.908;2022-10-31T05:15:24;7.93;;;3.20;;
24891;SDS011;12954;50.688;10.908;2022-10-31T05:17:54;12.68;;;3.67;;
24891;SDS011;12954;50.688;10.908;2022-10-31T05:20:25;9.48;;;3.22;;
24891;SDS011;12954;50.688;10.908;2022-10-31T05:22:56;13.05;;;3.67;;
24891;SDS011;12954;50.688;10.908;2022-10-31T05:25:27;9.90;;;3.30;;
24891;SDS011;12954;50.688;10.908;2022-10-31T05:27:56;7.00;;;2.95;;
24891;SDS011;12954;50.688;10.908;2022-10-31T05:30:26;7.97;;;3.05;;
24891;SDS011;12954;50.688;10.908;2022-10-31T05:32:56;8.25;;;3.00;;
24891;SDS011;12954;50.688;10.908;2022-10-31T05:35:25;8.05;;;3.47;;
24891;SDS011;12954;50.688;10.908;2022-10-31T05:37:56;7.22;;;3.53;;
24891;SDS011;12954;50.688;10.908;2022-10-31T05:40:26;7.43;;;3.03;;
24891;SDS011;12954;50.688;10.908;2022-10-31T05:42:55;7.18;;;3.22;;
24891;SDS011;12954;50.688;10.908;2022-10-31T05:45:25;7.20;;;3.40;;
24891;SDS011;12954;50.688;10.908;2022-10-31T05:47:54;10.13;;;3.42;;
24891;SDS011;12954;50.688;10.908;2022-10-31T05:50:25;6.30;;;3.70;;
24891;SDS011;12954;50.688;10.908;2022-10-31T05:52:55;9.27;;;3.60;;
24891;SDS011;12954;50.688;10.908;2022-10-31T05:55:24;7.43;;;3.45;;
24891;SDS011;12954;50.688;10.908;2022-10-31T05:57:54;11.82;;;4.07;;
24891;SDS011;12954;50.688;10.908;2022-10-31T06:00:26;10.45;;;3.67;;
24891;SDS011;12954;50.688;10.908;2022-10-31T06:02:58;7.28;;;3.70;;
24891;SDS011;12954;50.688;10.908;2022-10-31T06:05:27;9.35;;;3.70;;
24891;SDS011;12954;50.688;10.908;2022-10-31T06:07:55;9.38;;;3.95;;
24891;SDS011;12954;50.688;10.908;2022-10-31T06:10:25;6.60;;;4.13;;
24891;SDS011;12954;50.688;10.908;2022-10-31T06:12:55;8.65;;;4.70;;
24891;SDS011;12954;50.688;10.908;2022-10-31T06:15:24;7.38;;;4.53;;
24891;SDS011;12954;50.688;10.908;2022-10-31T06:18:00;11.90;;;4.15;;
24891;SDS011;12954;50.688;10.908;2022-10-31T06:20:29;6.15;;;4.00;;
24891;SDS011;12954;50.688;10.908;2022-10-31T06:22:58;11.73;;;4.47;;
24891;SDS011;12954;50.688;10.908;2022-10-31T06:25:28;9.60;;;4.05;;
24891;SDS011;12954;50.688;10.908;2022-10-31T06:27:58;5.65;;;4.03;;
24891;SDS011;12954;50.688;10.908;2022-10-31T06:30:26;8.30;;;4.07;;
24891;SDS011;12954;50.688;10.908;2022-10-31T06:33:00;15.50;;;4.50;;
24891;SDS011;12954;50.688;10.908;2022-10-31T06:35:29;7.80;;;3.78;;
24891;SDS011;12954;50.688;10.908;2022-10-31T06:37:58;8.13;;;3.80;;
24891;SDS011;12954;50.688;10.908;2022-10-31T06:40:27;10.98;;;3.88;;
24891;SDS011;12954;50.688;10.908;2022-10-31T06:42:58;7.25;;;3.95;;
24891;SDS011;12954;50.688;10.908;2022-10-31T06:45:27;8.43;;;4.70;;
24891;SDS011;12954;50.688;10.908;2022-10-31T06:47:56;9.15;;;4.15;;
24891;SDS011;12954;50.688;10.908;2022-10-31T06:50:43;8.65;;;3.75;;
24891;SDS011;12954;50.688;10.908;2022-10-31T06:53:12;7.80;;;3.78;;
24891;SDS011;12954;50.688;10.908;2022-10-31T06:55:41;7.75;;;4.60;;
24891;SDS011;12954;50.688;10.908;2022-10-31T06:58:11;10.40;;;4.00;;
24891;SDS011;12954;50.688;10.908;2022-10-31T07:00:39;6.53;;;3.83;;
24891;SDS011;12954;50.688;10.908;2022-10-31T07:03:09;7.45;;;4.43;;
24891;SDS011;12954;50.688;10.908;2022-10-31T07:05:39;8.85;;;4.45;;
24891;SDS011;12954;50.688;10.908;2022-10-31T07:08:10;9.90;;;4.03;;
24891;SDS011;12954;50.688;10.908;2022-10-31T07:10:40;7.80;;;4.53;;
24891;SDS011;12954;50.688;10.908;2022-10-31T07:13:12;11.90;;;4.10;;
24891;SDS011;12954;50.688;10.908;2022-10-31T07:15:41;7.82;;;3.60;;
24891;SDS011;12954;50.688;10.908;2022-10-31T07:18:11;9.35;;;4.32;;
24891;SDS011;12954;50.688;10.908;2022-10-31T07:20:40;8.18;;;4.15;;
24891;SDS011;12954;50.688;10.908;2022-10-31T07:23:09;21.73;;;14.38;;
24891;SDS011;12954;50.688;10.908;2022-10-31T07:25:38;14.90;;;9.40;;
24891;SDS011;12954;50.688;10.908;2022-10-31T07:28:07;11.88;;;5.55;;
24891;SDS011;12954;50.688;10.908;2022-10-31T07:30:38;11.05;;;5.88;;
24891;SDS011;12954;50.688;10.908;2022-10-31T07:33:07;11.85;;;5.60;;
24891;SDS011;12954;50.688;10.908;2022-10-31T07:35:36;8.05;;;4.72;;
24891;SDS011;12954;50.688;10.908;2022-10-31T07:38:09;11.38;;;5.43;;
24891;SDS011;12954;50.688;10.908;2022-10-31T07:40:39;10.57;;;4.18;;
24891;SDS011;12954;50.688;10.908;2022-10-31T07:43:08;10.18;;;4.65;;
24891;SDS011;12954;50.688;10.908;2022-10-31T07:45:41;8.48;;;4.32;;
24891;SDS011;12954;50.688;10.908;2022-10-31T07:48:09;8.23;;;3.85;;
24891;SDS011;12954;50.688;10.908;2022-10-31T07:50:38;11.73;;;4.65;;
24891;SDS011;12954;50.688;10.908;2022-10-31T07:53:07;8.07;;;4.13;;
24891;SDS011;12954;50.688;10.908;2022-10-31T07:55:37;8.07;;;4.30;;
24891;SDS011;12954;50.688;10.908;2022-10-31T07:58:06;10.52;;;4.88;;
24891;SDS011;12954;50.688;10.908;2022-10-31T08:00:36;6.60;;;4.40;;
24891;SDS011;12954;50.688;10.908;2022-10-31T08:03:08;12.75;;;4.55;;
24891;SDS011;12954;50.688;10.908;2022-10-31T08:05:37;13.38;;;8.73;;
24891;SDS011;12954;50.688;10.908;2022-10-31T08:08:07;15.32;;;7.88;;
24891;SDS011;12954;50.688;10.908;2022-10-31T08:10:36;11.45;;;5.07;;
24891;SDS011;12954;50.688;10.908;2022-10-31T08:13:06;8.50;;;5.35;;
24891;SDS011;12954;50.688;10.908;2022-10-31T08:15:36;11.23;;;5.35;;
24891;SDS011;12954;50.688;10.908;2022-10-31T08:18:10;7.95;;;4.70;;
24891;SDS011;12954;50.688;10.908;2022-10-31T08:20:40;8.02;;;4.50;;
24891;SDS011;12954;50.688;10.908;2022-10-31T08:23:10;13.85;;;5.72;;
24891;SDS011;12954;50.688;10.908;2022-10-31T08:25:39;11.07;;;5.70;;
24891;SDS011;12954;50.688;10.908;2022-10-31T08:28:09;12.30;;;5.28;;
24891;SDS011;12954;50.688;10.908;2022-10-31T08:30:40;7.03;;;4.05;;
24891;SDS011;12954;50.688;10.908;2022-10-31T08:33:11;8.80;;;4.88;;
24891;SDS011;12954;50.688;10.908;2022-10-31T08:35:40;12.88;;;4.60;;
24891;SDS011;12954;50.688;10.908;2022-10-31T08:38:10;7.70;;;4.60;;
24891;SDS011;12954;50.688;10.908;2022-10-31T08:40:40;6.43;;;3.85;;
24891;SDS011;12954;50.688;10.908;2022-10-31T08:43:11;7.18;;;3.95;;
24891;SDS011;12954;50.688;10.908;2022-10-31T08:45:40;7.97;;;4.55;;
24891;SDS011;12954;50.688;10.908;2022-10-31T08:48:12;12.52;;;4.40;;
24891;SDS011;12954;50.688;10.908;2022-10-31T08:50:42;10.05;;;4.03;;
24891;SDS011;12954;50.688;10.908;2022-10-31T08:53:13;8.63;;;3.88;;
24891;SDS011;12954;50.688;10.908;2022-10-31T08:55:43;10.18;;;4.20;;
24891;SDS011;12954;50.688;10.908;2022-10-31T08:58:13;11.98;;;3.70;;
24891;SDS011;12954;50.688;10.908;2022-10-31T09:00:43;9.05;;;5.03;;
24891;SDS011;12954;50.688;10.908;2022-10-31T09:03:13;11.30;;;6.30;;
24891;SDS011;12954;50.688;10.908;2022-10-31T09:05:43;11.05;;;5.88;;
24891;SDS011;12954;50.688;10.908;2022-10-31T09:08:12;12.68;;;6.25;;
24891;SDS011;12954;50.688;10.908;2022-10-31T09:10:42;13.65;;;6.78;;
24891;SDS011;12954;50.688;10.908;2022-10-31T09:13:12;12.95;;;5.65;;
24891;SDS011;12954;50.688;10.908;2022-10-31T09:15:42;11.68;;;4.70;;
24891;SDS011;12954;50.688;10.908;2022-10-31T09:18:13;10.63;;;4.38;;
24891;SDS011;12954;50.688;10.908;2022-10-31T09:20:44;6.53;;;3.97;;
24891;SDS011;12954;50.688;10.908;2022-10-31T09:23:14;8.98;;;4.60;;
24891;SDS011;12954;50.688;10.908;2022-10-31T09:25:44;10.88;;;4.38;;
24891;SDS011;12954;50.688;10.908;2022-10-31T09:28:17;10.48;;;4.45;;
24891;SDS011;12954;50.688;10.908;2022-10-31T09:30:47;10.43;;;4.25;;
24891;SDS011;12954;50.688;10.908;2022-10-31T09:33:19;12.32;;;4.25;;
24891;SDS011;12954;50.688;10.908;2022-10-31T09:35:48;12.50;;;4.57;;
24891;SDS011;12954;50.688;10.908;2022-10-31T09:38:17;11.48;;;4.75;;
24891;SDS011;12954;50.688;10.908;2022-10-31T09:40:49;12.90;;;5.35;;
24891;SDS011;12954;50.688;10.908;2022-10-31T09:43:24;11.43;;;4.60;;
24891;SDS011;12954;50.688;10.908;2022-10-31T09:45:59;12.20;;;4.95;;
24891;SDS011;12954;50.688;10.908;2022-10-31T09:48:51;11.32;;;4.93;;
24891;SDS011;12954;50.688;10.908;2022-10-31T09:51:29;15.70;;;4.57;;
24891;SDS011;12954;50.688;10.908;2022-10-31T09:54:01;9.65;;;3.97;;
24891;SDS011;12954;50.688;10.908;2022-10-31T09:56:33;11.70;;;4.03;;
24891;SDS011;12954;50.688;10.908;2022-10-31T09:59:04;11.65;;;4.30;;
24891;SDS011;12954;50.688;10.908;2022-10-31T10:01:40;10.05;;;3.95;;
24891;SDS011;12954;50.688;10.908;2022-10-31T10:04:26;8.02;;;3.65;;
24891;SDS011;12954;50.688;10.908;2022-10-31T10:06:59;12.20;;;3.75;;
24891;SDS011;12954;50.688;10.908;2022-10-31T10:09:30;9.07;;;3.78;;
24891;SDS011;12954;50.688;10.908;2022-10-31T10:12:02;11.35;;;3.92;;
24891;SDS011;12954;50.688;10.908;2022-10-31T10:14:45;10.65;;;4.00;;
24891;SDS011;12954;50.688;10.908;2022-10-31T10:17:26;10.50;;;4.13;;
24891;SDS011;12954;50.688;10.908;2022-10-31T10:23:03;7.97;;;4.03;;
24891;SDS011;12954;50.688;10.908;2022-10-31T10:25:40;11.85;;;4.07;;
24891;SDS011;12954;50.688;10.908;2022-10-31T10:28:13;9.93;;;4.10;;
24891;SDS011;12954;50.688;10.908;2022-10-31T10:30:48;10.25;;;4.00;;
24891;SDS011;12954;50.688;10.908;2022-10-31T10:33:23;12.43;;;4.38;;
24891;SDS011;12954;50.688;10.908;2022-10-31T10:38:28;7.93;;;3.90;;
24891;SDS011;12954;50.688;10.908;2022-10-31T10:41:01;11.13;;;3.90;;
24891;SDS011;12954;50.688;10.908;2022-10-31T10:43:34;13.23;;;4.15;;
24891;SDS011;12954;50.688;10.908;2022-10-31T10:46:05;8.90;;;3.80;;
24891;SDS011;12954;50.688;10.908;2022-10-31T10:49:05;8.85;;;3.80;;
24891;SDS011;12954;50.688;10.908;2022-10-31T10:51:44;8.57;;;4.00;;
24891;SDS011;12954;50.688;10.908;2022-10-31T10:54:42;10.65;;;3.72;;
24891;SDS011;12954;50.688;10.908;2022-10-31T10:57:21;7.93;;;3.22;;
24891;SDS011;12954;50.688;10.908;2022-10-31T10:59:56;9.10;;;4.18;;
24891;SDS011;12954;50.688;10.908;2022-10-31T11:02:30;11.77;;;3.80;;
24891;SDS011;12954;50.688;10.908;2022-10-31T11:05:01;9.07;;;3.50;;
24891;SDS011;12954;50.688;10.908;2022-10-31T11:07:39;8.35;;;3.70;;
24891;SDS011;12954;50.688;10.908;2022-10-31T11:10:11;8.65;;;3.90;;
24891;SDS011;12954;50.688;10.908;2022-10-31T11:12:45;7.85;;;3.40;;
24891;SDS011;12954;50.688;10.908;2022-10-31T11:15:26;8.88;;;4.07;;
24891;SDS011;12954;50.688;10.908;2022-10-31T11:17:58;11.52;;;3.78;;
24891;SDS011;12954;50.688;10.908;2022-10-31T11:20:29;9.52;;;3.55;;
24891;SDS011;12954;50.688;10.908;2022-10-31T11:23:16;12.00;;;3.92;;
24891;SDS011;12954;50.688;10.908;2022-10-31T11:25:51;13.82;;;3.80;;
24891;SDS011;12954;50.688;10.908;2022-10-31T11:28:23;11.07;;;3.75;;
24891;SDS011;12954;50.688;10.908;2022-10-31T11:30:53;8.52;;;4.10;;
24891;SDS011;12954;50.688;10.908;2022-10-31T11:33:28;11.60;;;4.43;;
24891;SDS011;12954;50.688;10.908;2022-10-31T11:36:00;10.13;;;4.15;;
24891;SDS011;12954;50.688;10.908;2022-10-31T11:38:33;12.75;;;3.47;;
24891;SDS011;12954;50.688;10.908;2022-10-31T11:41:09;8.63;;;3.92;;
24891;SDS011;12954;50.688;10.908;2022-10-31T11:43:45;10.30;;;4.85;;
24891;SDS011;12954;50.688;10.908;2022-10-31T11:46:18;9.80;;;4.30;;
24891;SDS011;12954;50.688;10.908;2022-10-31T11:48:51;11.50;;;6.25;;
24891;SDS011;12954;50.688;10.908;2022-10-31T11:51:22;9.27;;;4.00;;
24891;SDS011;12954;50.688;10.908;2022-10-31T11:53:55;11.65;;;4.03;;
24891;SDS011;12954;50.688;10.908;2022-10-31T11:56:37;10.18;;;3.35;;
24891;SDS011;12954;50.688;10.908;2022-10-31T11:59:15;10.35;;;3.70;;
24891;SDS011;12954;50.688;10.908;2022-10-31T12:01:47;8.70;;;3.83;;
24891;SDS011;12954;50.688;10.908;2022-10-31T12:04:17;10.05;;;3.80;;
24891;SDS011;12954;50.688;10.908;2022-10-31T12:06:46;10.50;;;3.80;;
24891;SDS011;12954;50.688;10.908;2022-10-31T12:09:21;13.15;;;3.88;;
24891;SDS011;12954;50.688;10.908;2022-10-31T12:11:54;12.25;;;3.95;;
24891;SDS011;12954;50.688;10.908;2022-10-31T12:14:36;9.32;;;3.88;;
24891;SDS011;12954;50.688;10.908;2022-10-31T12:17:14;9.07;;;3.53;;
24891;SDS011;12954;50.688;10.908;2022-10-31T12:19:49;12.77;;;4.13;;
24891;SDS011;12954;50.688;10.908;2022-10-31T12:22:35;10.35;;;3.53;;
24891;SDS011;12954;50.688;10.908;2022-10-31T12:25:19;9.93;;;3.42;;
24891;SDS011;12954;50.688;10.908;2022-10-31T12:28:03;8.50;;;3.80;;
24891;SDS011;12954;50.688;10.908;2022-10-31T12:30:48;9.63;;;4.15;;
24891;SDS011;12954;50.688;10.908;2022-10-31T12:33:30;9.35;;;3.90;;
24891;SDS011;12954;50.688;10.908;2022-10-31T12:39:08;14.75;;;3.88;;
24891;SDS011;12954;50.688;10.908;2022-10-31T12:42:02;7.97;;;3.33;;
24891;SDS011;12954;50.688;10.908;2022-10-31T12:44:43;8.80;;;3.78;;
24891;SDS011;12954;50.688;10.908;2022-10-31T12:47:38;10.90;;;3.63;;
24891;SDS011;12954;50.688;10.908;2022-10-31T12:50:22;8.10;;;4.15;;
24891;SDS011;12954;50.688;10.908;2022-10-31T12:53:06;9.52;;;3.47;;
24891;SDS011;12954;50.688;10.908;2022-10-31T12:55:51;10.07;;;3.47;;
24891;SDS011;12954;50.688;10.908;2022-10-31T12:58:29;9.23;;;3.42;;
24891;SDS011;12954;50.688;10.908;2022-10-31T13:01:03;13.85;;;7.47;;
24891;SDS011;12954;50.688;10.908;2022-10-31T13:03:38;14.05;;;7.60;;
24891;SDS011;12954;50.688;10.908;2022-10-31T13:06:14;12.48;;;4.15;;
24891;SDS011;12954;50.688;10.908;2022-10-31T13:08:48;10.75;;;4.82;;
24891;SDS011;12954;50.688;10.908;2022-10-31T13:11:21;8.80;;;3.40;;
24891;SDS011;12954;50.688;10.908;2022-10-31T13:13:56;8.40;;;3.88;;
24891;SDS011;12954;50.688;10.908;2022-10-31T13:16:30;10.68;;;4.20;;
24891;SDS011;12954;50.688;10.908;2022-10-31T13:19:03;10.10;;;3.83;;
24891;SDS011;12954;50.688;10.908;2022-10-31T13:21:37;8.75;;;4.13;;
24891;SDS011;12954;50.688;10.908;2022-10-31T13:24:10;14.48;;;4.68;;
24891;SDS011;12954;50.688;10.908;2022-10-31T13:26:43;10.18;;;3.97;;
24891;SDS011;12954;50.688;10.908;2022-10-31T13:31:55;11.95;;;4.15;;
24891;SDS011;12954;50.688;10.908;2022-10-31T13:34:25;5.68;;;3.60;;
24891;SDS011;12954;50.688;10.908;2022-10-31T13:37:02;11.25;;;3.90;;
24891;SDS011;12954;50.688;10.908;2022-10-31T13:39:44;10.88;;;3.78;;
24891;SDS011;12954;50.688;10.908;2022-10-31T13:42:30;8.93;;;3.95;;
24891;SDS011;12954;50.688;10.908;2022-10-31T13:45:13;8.98;;;3.63;;
24891;SDS011;12954;50.688;10.908;2022-10-31T13:47:54;10.70;;;4.28;;
24891;SDS011;12954;50.688;10.908;2022-10-31T13:50:25;10.27;;;4.70;;
24891;SDS011;12954;50.688;10.908;2022-10-31T13:53:11;10.85;;;4.00;;
24891;SDS011;12954;50.688;10.908;2022-10-31T13:55:41;9.02;;;3.88;;
24891;SDS011;12954;50.688;10.908;2022-10-31T13:58:21;10.02;;;4.05;;
24891;SDS011;12954;50.688;10.908;2022-10-31T14:01:05;10.32;;;4.32;;
24891;SDS011;12954;50.688;10.908;2022-10-31T14:03:45;9.82;;;3.90;;
24891;SDS011;12954;50.688;10.908;2022-10-31T14:06:41;12.40;;;4.15;;
24891;SDS011;12954;50.688;10.908;2022-10-31T14:09:27;10.70;;;3.58;;
24891;SDS011;12954;50.688;10.908;2022-10-31T14:11:59;11.13;;;6.85;;
24891;SDS011;12954;50.688;10.908;2022-10-31T14:14:33;15.95;;;6.60;;
24891;SDS011;12954;50.688;10.908;2022-10-31T14:17:15;12.63;;;4.95;;
24891;SDS011;12954;50.688;10.908;2022-10-31T14:19:58;13.10;;;5.15;;
24891;SDS011;12954;50.688;10.908;2022-10-31T14:22:30;10.15;;;4.53;;
24891;SDS011;12954;50.688;10.908;2022-10-31T14:27:56;8.43;;;4.03;;
24891;SDS011;12954;50.688;10.908;2022-10-31T14:30:26;11.88;;;3.95;;
24891;SDS011;12954;50.688;10.908;2022-10-31T14:32:58;13.25;;;3.90;;
24891;SDS011;12954;50.688;10.908;2022-10-31T14:35:34;10.48;;;4.10;;
24891;SDS011;12954;50.688;10.908;2022-10-31T14:38:17;8.57;;;4.00;;
24891;SDS011;12954;50.688;10.908;2022-10-31T14:41:06;11.75;;;3.88;;
24891;SDS011;12954;50.688;10.908;2022-10-31T14:43:51;14.32;;;4.53;;
24891;SDS011;12954;50.688;10.908;2022-10-31T14:46:48;11.90;;;4.40;;
24891;SDS011;12954;50.688;10.908;2022-10-31T14:49:27;6.78;;;4.00;;
24891;SDS011;12954;50.688;10.908;2022-10-31T14:52:07;10.27;;;4.13;;
24891;SDS011;12954;50.688;10.908;2022-10-31T14:54:40;10.80;;;4.70;;
24891;SDS011;12954;50.688;10.908;2022-10-31T14:57:13;10.25;;;4.20;;
24891;SDS011;12954;50.688;10.908;2022-10-31T14:59:45;9.85;;;4.93;;
24891;SDS011;12954;50.688;10.908;2022-10-31T15:02:18;9.33;;;4.77;;
24891;SDS011;12954;50.688;10.908;2022-10-31T15:04:53;11.68;;;5.80;;
24891;SDS011;12954;50.688;10.908;2022-10-31T15:07:23;11.68;;;4.28;;
24891;SDS011;12954;50.688;10.908;2022-10-31T15:09:57;9.30;;;4.40;;
24891;SDS011;12954;50.688;10.908;2022-10-31T15:14:56;24.70;;;14.73;;
24891;SDS011;12954;50.688;10.908;2022-10-31T15:17:26;25.77;;;17.48;;
24891;SDS011;12954;50.688;10.908;2022-10-31T15:19:55;14.82;;;9.57;;